createdAt,value
2023-02-04T06:41:00.332Z,7.67
2023-02-04T06:55:52.931Z,7.20
2023-02-04T06:58:20.949Z,6.67
2023-02-04T07:47:58.173Z,6.83
2023-02-04T07:50:31.651Z,7.20
2023-02-04T07:53:00.904Z,7.70
2023-02-04T07:55:28.994Z,7.80
2023-02-04T12:59:26.125Z,6.27
2023-02-04T13:06:45.829Z,6.43
2023-02-04T13:29:00.470Z,5.90
2023-02-04T13:36:49.262Z,5.73
2023-02-04T13:40:46.603Z,6.33
2023-02-04T16:13:05.976Z,6.20
2023-02-04T16:15:36.438Z,6.00
2023-02-04T16:30:34.516Z,7.13
2023-02-04T20:35:41.433Z,11.30
2023-02-04T20:38:16.412Z,18.30
2023-02-04T20:54:31.016Z,8.80
2023-02-04T20:57:18.262Z,8.90
2023-02-04T20:59:54.530Z,8.37
2023-02-04T21:02:27.919Z,8.33
2023-02-04T21:05:06.777Z,8.80
2023-02-04T21:08:11.762Z,7.63
2023-02-04T21:10:47.491Z,7.97
2023-02-04T21:13:14.848Z,9.63
2023-02-04T21:15:42.800Z,7.67
2023-02-04T21:18:10.228Z,7.60
2023-02-04T21:20:37.633Z,7.23
2023-02-04T21:23:05.112Z,5.87
2023-02-04T21:25:32.816Z,6.40
2023-02-04T21:28:00.402Z,6.00
2023-02-04T21:30:31.312Z,9.47
2023-02-04T21:32:59.272Z,8.27
2023-02-04T21:35:26.990Z,6.83
2023-02-04T21:37:58.596Z,7.00
2023-02-04T21:40:26.758Z,8.10
2023-02-04T21:42:54.183Z,8.23
2023-02-04T21:45:22.841Z,10.43
2023-02-04T21:47:51.558Z,8.30
2023-02-04T21:50:21.015Z,8.67
2023-02-04T21:52:49.030Z,8.40
2023-02-04T21:55:19.066Z,9.03
2023-02-04T21:57:46.328Z,8.43
2023-02-04T22:00:14.142Z,7.40
2023-02-04T22:02:41.475Z,7.73
2023-02-04T22:05:09.733Z,7.80
2023-02-04T22:07:38.298Z,8.13
2023-02-04T22:10:08.174Z,9.03
2023-02-04T22:12:36.251Z,7.77
2023-02-04T22:15:04.645Z,7.93
2023-02-04T22:17:32.500Z,10.10
2023-02-04T22:19:59.960Z,10.33
2023-02-04T22:22:27.609Z,9.93
2023-02-04T22:24:55.273Z,9.23
2023-02-04T22:27:22.819Z,7.83
2023-02-04T22:29:50.102Z,7.93
2023-02-04T22:32:17.344Z,7.37
2023-02-04T22:34:44.610Z,7.80
2023-02-04T22:37:11.965Z,9.83
2023-02-04T22:39:39.255Z,10.13
2023-02-04T22:42:08.488Z,9.30
2023-02-04T22:44:35.817Z,9.77
2023-02-04T22:47:03.088Z,8.50
2023-02-04T22:49:32.518Z,8.20
2023-02-04T22:51:59.933Z,10.07
2023-02-04T22:54:27.286Z,11.20
2023-02-04T22:56:54.639Z,11.33
2023-02-04T22:59:21.889Z,10.47
2023-02-04T23:01:49.244Z,9.60
2023-02-04T23:04:16.542Z,9.70
2023-02-04T23:06:43.917Z,10.60
2023-02-04T23:09:11.217Z,11.20
2023-02-04T23:11:38.512Z,16.77
2023-02-04T23:14:05.811Z,17.87
2023-02-04T23:16:33.186Z,16.40
2023-02-04T23:19:00.497Z,13.60
2023-02-04T23:21:27.800Z,12.63
2023-02-04T23:23:55.187Z,11.27
2023-02-04T23:26:22.755Z,10.63
2023-02-04T23:28:50.372Z,9.13
2023-02-04T23:31:17.713Z,10.93
2023-02-04T23:33:44.987Z,11.63
2023-02-04T23:36:12.303Z,12.03
2023-02-04T23:38:39.584Z,11.57
2023-02-04T23:41:06.967Z,11.03
2023-02-04T23:43:34.234Z,10.93
2023-02-04T23:46:01.672Z,9.07
2023-02-04T23:48:29.318Z,9.43
2023-02-04T23:50:59.539Z,8.70
2023-02-04T23:53:26.809Z,9.53
2023-02-04T23:55:54.164Z,10.07
2023-02-04T23:58:21.595Z,9.17
